Time;durP1;ratioP1;P1;durP2;ratioP2;P2;SDS_P1;SDS_P2;PMS_P1;PMS_P2;Temp;Humidity;BMP_temperature;BMP_pressure;BME280_temperature;BME280_humidity;BME280_pressure;Samples;Min_cycle;Max_cycle;Signal;HPM_P1;HPM_P2
2022/05/16 04:00:22;;;;;;;4.10;3.47;;;17.90;95.50;;;;;;6028768;23;20390;-67
2022/05/16 04:02:49;;;;;;;5.83;3.93;;;17.90;95.50;;;;;;4975888;28;20471;-69
2022/05/16 04:05:19;;;;;;;5.20;3.63;;;17.80;95.50;;;;;;4975821;28;20486;-69
2022/05/16 04:07:46;;;;;;;6.27;3.97;;;17.80;95.70;;;;;;4975523;28;20565;-69
2022/05/16 04:10:14;;;;;;;4.27;3.43;;;17.80;95.80;;;;;;4975306;28;20479;-70
2022/05/16 04:12:41;;;;;;;4.50;4.10;;;17.80;96.00;;;;;;4976060;28;20817;-69
2022/05/16 04:15:11;;;;;;;4.53;3.90;;;17.90;96.00;;;;;;4976084;28;20458;-69
2022/05/16 04:17:39;;;;;;;4.03;3.63;;;17.90;95.90;;;;;;4978679;28;20454;-69
2022/05/16 04:20:07;;;;;;;5.67;3.77;;;17.90;95.90;;;;;;4979046;28;20462;-68
2022/05/16 04:22:34;;;;;;;4.23;3.83;;;17.90;95.70;;;;;;4978778;28;20458;-69
2022/05/16 04:25:01;;;;;;;3.60;3.30;;;17.90;95.70;;;;;;4978770;28;20466;-69
2022/05/16 04:27:28;;;;;;;4.30;3.93;;;18.00;95.90;;;;;;4978554;28;20970;-70
2022/05/16 04:29:54;;;;;;;3.50;3.17;;;18.00;96.10;;;;;;4978606;28;20483;-69
2022/05/16 04:32:21;;;;;;;5.00;3.47;;;18.10;96.10;;;;;;4978192;28;20501;-69
2022/05/16 04:34:49;;;;;;;4.17;3.43;;;18.20;96.00;;;;;;4978084;28;20461;-69
2022/05/16 04:37:16;;;;;;;4.03;3.63;;;18.30;95.90;;;;;;4978127;28;20952;-69
2022/05/16 04:39:43;;;;;;;4.27;3.97;;;18.30;95.80;;;;;;4978884;28;20954;-69
2022/05/16 04:44:54;;;;;;;4.00;3.70;;;18.40;97.60;;;;;;4978573;28;20451;-69
2022/05/16 04:47:21;;;;;;;4.77;4.10;;;18.30;98.60;;;;;;4978594;28;20486;-69
2022/05/16 04:49:49;;;;;;;8.00;4.13;;;18.30;99.70;;;;;;4978750;28;20521;-68
2022/05/16 04:52:16;;;;;;;5.73;3.97;;;18.20;99.70;;;;;;4978402;28;20490;-67
2022/05/16 04:54:42;;;;;;;4.27;3.87;;;18.10;99.80;;;;;;4978517;28;20458;-68
2022/05/16 04:57:09;;;;;;;4.43;4.13;;;18.00;99.90;;;;;;4978374;28;20455;-68
2022/05/16 04:59:36;;;;;;;6.07;4.93;;;17.90;99.90;;;;;;4978018;28;20505;-68
2022/05/16 05:02:03;;;;;;;4.43;4.03;;;17.90;99.90;;;;;;4977330;28;20489;-68
2022/05/16 05:04:30;;;;;;;4.70;4.00;;;17.90;99.90;;;;;;4979183;28;20462;-68
2022/05/16 05:06:58;;;;;;;4.83;4.43;;;18.00;99.90;;;;;;4977870;28;20991;-68
2022/05/16 05:09:25;;;;;;;4.00;3.70;;;18.00;99.90;;;;;;4977810;28;20451;-68
2022/05/16 05:14:38;;;;;;;5.10;3.80;;;18.10;99.90;;;;;;4977211;28;20494;-69
2022/05/16 05:17:07;;;;;;;5.03;4.53;;;18.20;99.90;;;;;;4977209;28;20446;-70
2022/05/16 05:19:34;;;;;;;4.43;4.03;;;18.30;99.90;;;;;;4977695;28;20460;-69
2022/05/16 05:22:03;;;;;;;4.80;4.17;;;18.40;99.90;;;;;;4977528;28;20502;-69
2022/05/16 05:24:30;;;;;;;5.17;3.63;;;18.50;99.90;;;;;;4977361;28;20465;-68
2022/05/16 05:26:57;;;;;;;5.00;4.60;;;18.50;99.90;;;;;;4976199;28;20883;-68
2022/05/16 05:29:24;;;;;;;5.00;4.50;;;18.60;99.90;;;;;;4976957;28;20467;-68
2022/05/16 05:31:50;;;;;;;4.87;4.47;;;18.80;99.90;;;;;;4976892;28;20482;-68
2022/05/16 05:34:18;;;;;;;4.43;3.80;;;18.90;99.90;;;;;;4976894;28;20459;-68
2022/05/16 05:36:45;;;;;;;5.57;4.73;;;19.10;99.90;;;;;;4976920;28;20451;-68
2022/05/16 05:39:16;;;;;;;5.20;3.97;;;19.20;99.90;;;;;;4976642;28;20451;-68
2022/05/16 05:41:43;;;;;;;7.27;5.13;;;19.20;99.90;;;;;;4976773;28;20586;-68
2022/05/16 05:44:10;;;;;;;4.70;4.00;;;19.20;99.90;;;;;;4977036;28;20498;-68
2022/05/16 05:46:38;;;;;;;8.77;3.80;;;19.30;99.90;;;;;;4976869;28;20571;-68
2022/05/16 05:49:06;;;;;;;4.60;3.70;;;19.30;99.90;;;;;;4976580;28;20462;-68
2022/05/16 05:51:33;;;;;;;9.37;4.30;;;19.20;99.90;;;;;;4976457;28;20479;-68
2022/05/16 05:54:00;;;;;;;5.70;4.57;;;19.20;99.90;;;;;;4976609;28;20462;-68
2022/05/16 05:56:28;;;;;;;4.50;3.67;;;19.10;99.90;;;;;;4976541;28;20455;-68
2022/05/16 05:58:55;;;;;;;4.93;4.53;;;19.10;99.90;;;;;;4976596;28;20455;-68
2022/05/16 06:01:22;;;;;;;6.03;4.57;;;19.10;99.90;;;;;;4976423;28;20546;-68
2022/05/16 06:03:49;;;;;;;4.93;4.50;;;19.20;99.90;;;;;;4976471;28;20870;-68
2022/05/16 06:06:16;;;;;;;6.30;4.37;;;19.20;99.90;;;;;;4976046;28;20455;-69
2022/05/16 06:08:43;;;;;;;3.93;3.60;;;19.30;99.90;;;;;;4976383;28;20462;-68
2022/05/16 06:11:09;;;;;;;4.13;3.83;;;19.30;99.90;;;;;;4976133;28;20482;-68
2022/05/16 06:13:38;;;;;;;4.23;3.50;;;19.50;99.90;;;;;;4976045;28;20939;-68
2022/05/16 06:16:06;;;;;;;5.37;4.07;;;19.60;99.90;;;;;;4976232;28;20463;-68
2022/05/16 06:18:33;;;;;;;4.60;3.83;;;19.60;99.90;;;;;;4975852;28;20924;-68
2022/05/16 06:21:00;;;;;;;7.60;3.67;;;19.70;99.90;;;;;;4975762;28;20983;-68
2022/05/16 06:23:26;;;;;;;5.07;4.60;;;19.80;99.90;;;;;;4975727;28;20459;-68
2022/05/16 06:25:53;;;;;;;5.00;4.60;;;20.10;99.90;;;;;;4975617;28;20459;-68
2022/05/16 06:28:23;;;;;;;5.03;4.53;;;20.30;99.90;;;;;;4975691;28;20516;-68
2022/05/16 06:30:52;;;;;;;5.87;4.40;;;20.40;99.90;;;;;;4976076;28;20501;-68
2022/05/16 06:33:21;;;;;;;7.93;4.70;;;20.70;99.90;;;;;;4976012;28;20455;-68
2022/05/16 06:35:49;;;;;;;6.60;5.70;;;20.80;99.90;;;;;;4975429;28;20943;-68
2022/05/16 06:38:18;;;;;;;8.97;4.60;;;21.00;99.90;;;;;;4975038;28;20447;-68
2022/05/16 06:40:46;;;;;;;6.00;4.60;;;21.00;99.90;;;;;;4975356;28;20694;-68
2022/05/16 06:43:14;;;;;;;5.37;4.77;;;21.20;99.90;;;;;;4976214;28;20455;-68
2022/05/16 06:45:41;;;;;;;8.13;5.07;;;21.60;99.90;;;;;;4975844;28;20455;-68
2022/05/16 06:48:10;;;;;;;5.97;4.60;;;22.20;99.90;;;;;;4975427;28;20817;-68
2022/05/16 06:50:38;;;;;;;6.60;4.70;;;22.50;99.30;;;;;;4975482;28;20482;-68
2022/05/16 06:53:06;;;;;;;6.63;4.53;;;22.90;98.70;;;;;;4975929;28;20459;-68
2022/05/16 06:55:33;;;;;;;5.17;4.77;;;23.50;98.00;;;;;;4975789;28;20455;-68
2022/05/16 06:57:59;;;;;;;5.47;4.10;;;24.00;95.40;;;;;;4975590;28;20455;-68
2022/05/16 07:00:27;;;;;;;5.17;4.23;;;24.50;94.00;;;;;;4975461;28;20462;-69
2022/05/16 07:02:53;;;;;;;6.93;4.33;;;25.10;92.90;;;;;;4975594;28;20443;-68
2022/05/16 07:05:21;;;;;;;5.83;4.73;;;25.50;92.50;;;;;;4975477;28;20490;-68
2022/05/16 07:07:48;;;;;;;4.40;4.00;;;25.70;90.60;;;;;;4975414;28;20544;-68
2022/05/16 07:10:15;;;;;;;5.37;3.97;;;25.70;90.90;;;;;;4975465;28;20459;-69
2022/05/16 07:12:42;;;;;;;5.83;3.90;;;25.90;91.00;;;;;;4975507;28;20458;-69
2022/05/16 07:15:10;;;;;;;4.60;4.20;;;26.30;90.20;;;;;;4975181;28;20823;-68
2022/05/16 07:17:36;;;;;;;3.77;3.57;;;26.60;88.50;;;;;;4975495;28;20454;-68
2022/05/16 07:20:04;;;;;;;4.00;3.70;;;27.00;87.20;;;;;;4975392;28;20462;-69
2022/05/16 07:22:32;;;;;;;5.53;3.80;;;27.20;85.50;;;;;;4975091;28;20501;-68
2022/05/16 07:24:59;;;;;;;8.30;3.93;;;27.30;86.00;;;;;;4975335;28;20495;-68
2022/05/16 07:30:12;;;;;;;10.83;4.53;;;26.80;82.70;;;;;;4975259;28;20427;-68
2022/05/16 07:32:45;;;;;;;4.07;3.83;;;26.40;86.20;;;;;;4974985;28;21011;-68
2022/05/16 07:35:13;;;;;;;4.67;4.10;;;26.00;85.70;;;;;;4975290;28;20442;-68
2022/05/16 07:37:42;;;;;;;4.50;3.80;;;25.50;85.80;;;;;;4975215;28;20465;-68
2022/05/16 07:40:11;;;;;;;5.80;3.77;;;25.20;87.90;;;;;;4975185;28;20477;-68
2022/05/16 07:42:38;;;;;;;3.97;3.53;;;24.90;90.00;;;;;;4975116;28;20857;-68
2022/05/16 07:45:07;;;;;;;4.93;4.60;;;24.80;91.20;;;;;;4975276;28;20454;-70
2022/05/16 07:47:34;;;;;;;3.93;3.63;;;24.90;90.50;;;;;;4974914;28;20478;-69
2022/05/16 07:50:02;;;;;;;4.00;3.70;;;25.30;91.30;;;;;;4976941;28;20470;-70
2022/05/16 07:52:30;;;;;;;3.17;2.90;;;25.70;90.70;;;;;;4978906;28;20481;-69
2022/05/16 07:54:58;;;;;;;4.20;3.90;;;26.00;90.40;;;;;;4979070;28;20458;-69
2022/05/16 07:57:25;;;;;;;5.37;3.50;;;26.30;90.40;;;;;;4978973;28;20450;-69
2022/05/16 07:59:52;;;;;;;3.60;3.27;;;26.50;90.00;;;;;;4979071;28;20454;-68
2022/05/16 08:02:19;;;;;;;7.73;3.70;;;26.70;88.60;;;;;;4978418;28;20486;-68
2022/05/16 08:04:45;;;;;;;6.77;3.40;;;26.70;88.20;;;;;;4978573;28;20462;-67
2022/05/16 08:07:12;;;;;;;4.60;3.93;;;26.60;88.10;;;;;;4978727;28;20544;-68
2022/05/16 08:12:36;;;;;;;7.30;4.00;;;26.30;88.70;;;;;;4966140;28;20465;-68
2022/05/16 08:15:03;;;;;;;5.67;3.60;;;26.00;90.10;;;;;;4978686;28;20462;-69
2022/05/16 08:17:29;;;;;;;5.03;4.20;;;25.70;90.60;;;;;;4978559;28;20954;-69
2022/05/16 08:19:57;;;;;;;7.63;4.70;;;25.30;90.90;;;;;;4978633;28;20458;-68
2022/05/16 08:22:28;;;;;;;5.37;4.20;;;25.00;91.80;;;;;;4978574;28;20502;-68
2022/05/16 08:24:55;;;;;;;4.07;3.73;;;24.90;92.60;;;;;;4978580;28;20800;-68
2022/05/16 08:27:22;;;;;;;4.20;3.80;;;24.80;93.00;;;;;;4978439;28;20478;-68
2022/05/16 08:29:50;;;;;;;6.67;5.17;;;24.70;93.90;;;;;;4978944;28;20454;-68
2022/05/16 08:32:19;;;;;;;5.60;5.10;;;24.80;94.20;;;;;;4978839;28;20510;-69
2022/05/16 08:34:46;;;;;;;6.20;4.33;;;24.80;94.30;;;;;;4979078;28;20465;-69
2022/05/16 08:40:01;;;;;;;4.57;4.17;;;25.10;95.00;;;;;;4979122;28;20430;-69
2022/05/16 08:42:39;;;;;;;6.23;4.83;;;25.10;94.40;;;;;;4978954;28;20529;-68
2022/05/16 08:45:14;;;;;;;7.97;5.47;;;24.90;94.50;;;;;;4978483;28;21032;-68
2022/05/16 08:47:53;;;;;;;4.97;4.40;;;24.70;95.50;;;;;;4977947;28;20828;-68
2022/05/16 08:50:24;;;;;;;6.30;4.70;;;24.60;95.80;;;;;;4978182;28;20438;-68
2022/05/16 08:52:57;;;;;;;5.67;4.37;;;24.70;95.80;;;;;;4978157;28;20504;-69
2022/05/16 08:55:30;;;;;;;4.93;4.33;;;25.10;95.20;;;;;;4978040;28;20502;-69
2022/05/16 08:58:00;;;;;;;5.83;4.67;;;26.10;94.60;;;;;;4978263;28;20440;-68
2022/05/16 09:00:35;;;;;;;9.67;4.33;;;27.20;92.70;;;;;;4977347;28;20461;-68
2022/05/16 09:03:04;;;;;;;4.43;3.97;;;28.30;91.10;;;;;;4977309;28;20442;-68
2022/05/16 09:05:36;;;;;;;5.80;4.50;;;29.00;90.10;;;;;;4977598;28;20460;-68
2022/05/16 09:08:06;;;;;;;5.30;4.77;;;29.60;88.40;;;;;;4977618;28;20506;-68
2022/05/16 09:10:47;;;;;;;5.80;4.50;;;30.30;86.10;;;;;;4977471;28;20529;-68
2022/05/16 09:13:25;;;;;;;5.90;5.40;;;31.00;80.70;;;;;;4977722;28;20443;-68
2022/05/16 09:16:04;;;;;;;5.30;4.63;;;31.30;80.60;;;;;;4977643;28;20443;-68
2022/05/16 09:18:38;;;;;;;7.37;4.73;;;31.60;75.80;;;;;;4977609;28;20435;-68
2022/05/16 09:21:14;;;;;;;7.07;5.40;;;31.70;72.90;;;;;;4977611;28;20486;-68
2022/05/16 09:23:55;;;;;;;5.07;4.40;;;31.30;73.60;;;;;;4977578;28;20478;-69
2022/05/16 09:26:32;;;;;;;7.63;4.27;;;32.00;73.80;;;;;;4977362;28;20477;-68
2022/05/16 09:29:04;;;;;;;5.07;4.40;;;32.60;69.30;;;;;;4977869;28;20521;-68
2022/05/16 09:31:37;;;;;;;4.90;4.37;;;32.80;67.30;;;;;;4977486;28;20479;-68
2022/05/16 09:34:04;;;;;;;10.97;4.97;;;32.70;66.20;;;;;;4977320;28;20446;-68
2022/05/16 09:36:33;;;;;;;5.50;5.00;;;32.30;68.00;;;;;;4977129;28;20458;-69
2022/05/16 09:39:00;;;;;;;5.57;5.07;;;31.90;68.90;;;;;;4977511;28;20458;-68
2022/05/16 09:41:40;;;;;;;6.00;4.57;;;31.50;71.20;;;;;;4977078;28;21014;-68
2022/05/16 09:44:12;;;;;;;6.10;5.00;;;31.40;70.90;;;;;;4977190;28;20493;-68
2022/05/16 09:46:42;;;;;;;5.30;4.70;;;31.50;72.30;;;;;;4977364;28;20438;-68
2022/05/16 09:49:15;;;;;;;7.73;4.97;;;31.40;72.60;;;;;;4976840;28;20474;-68
2022/05/16 09:51:48;;;;;;;4.57;4.10;;;31.40;72.80;;;;;;4976401;28;20480;-68
2022/05/16 09:54:25;;;;;;;5.13;4.20;;;31.30;73.90;;;;;;4976555;28;20920;-68
2022/05/16 09:57:05;;;;;;;6.00;4.50;;;30.80;72.50;;;;;;4976416;28;20782;-68
2022/05/16 09:59:37;;;;;;;6.93;5.10;;;30.70;72.10;;;;;;4976729;28;20446;-68
2022/05/16 10:02:12;;;;;;;4.87;4.43;;;30.60;77.60;;;;;;4977096;28;20490;-68
2022/05/16 10:04:42;;;;;;;4.20;3.90;;;30.90;78.20;;;;;;4977628;28;20443;-68
2022/05/16 10:07:10;;;;;;;5.97;5.43;;;31.20;74.50;;;;;;4977562;28;20466;-68
2022/05/16 10:09:41;;;;;;;8.50;5.50;;;31.30;73.60;;;;;;4976521;28;20525;-68
2022/05/16 10:12:10;;;;;;;6.37;4.77;;;31.20;72.40;;;;;;4976527;28;20474;-68
2022/05/16 10:14:39;;;;;;;5.87;5.37;;;31.30;74.50;;;;;;4976909;28;20458;-68
2022/05/16 10:17:09;;;;;;;6.17;5.57;;;31.30;73.20;;;;;;4976700;28;20522;-68
2022/05/16 10:19:38;;;;;;;6.10;4.67;;;31.20;72.70;;;;;;4977038;28;20506;-68
2022/05/16 10:22:09;;;;;;;4.93;4.43;;;31.00;73.90;;;;;;4976234;28;20475;-68
2022/05/16 10:24:42;;;;;;;7.27;4.93;;;30.90;72.80;;;;;;4976814;28;20442;-68
2022/05/16 10:27:12;;;;;;;7.83;5.07;;;31.00;74.00;;;;;;4976596;28;20443;-68
2022/05/16 10:29:42;;;;;;;4.80;4.40;;;31.00;70.20;;;;;;4976317;28;21010;-68
2022/05/16 10:35:03;;;;;;;6.33;4.37;;;32.20;68.10;;;;;;4976578;28;20423;-68
2022/05/16 10:37:33;;;;;;;7.57;4.17;;;32.40;67.40;;;;;;4976550;28;20465;-69
2022/05/16 10:40:06;;;;;;;4.93;4.50;;;32.80;67.50;;;;;;4976402;28;20466;-69
2022/05/16 10:42:39;;;;;;;8.07;3.90;;;32.70;63.90;;;;;;4976105;28;20845;-68
2022/05/16 10:45:11;;;;;;;3.93;3.50;;;32.20;63.70;;;;;;4976421;28;20447;-68
2022/05/16 10:47:46;;;;;;;4.43;3.60;;;31.60;64.80;;;;;;4975968;28;20934;-68
2022/05/16 10:50:17;;;;;;;8.33;3.47;;;31.00;66.50;;;;;;4976053;28;20513;-68
2022/05/16 10:52:49;;;;;;;5.90;4.30;;;30.40;69.70;;;;;;4976178;28;20509;-68
2022/05/16 10:55:16;;;;;;;4.00;3.43;;;30.10;72.70;;;;;;4976482;28;20438;-69
2022/05/16 10:58:23;;;;;;;4.67;3.37;;;30.00;68.90;;;;;;4976758;28;20455;-69
2022/05/16 11:00:58;;;;;;;7.00;3.50;;;30.00;70.80;;;;;;4947238;28;20562;-69
2022/05/16 11:03:51;;;;;;;3.63;3.33;;;30.40;71.70;;;;;;4976430;28;20445;-70
2022/05/16 11:06:41;;;;;;;5.83;2.87;;;30.80;72.10;;;;;;4976532;28;20449;-68
2022/05/16 11:09:16;;;;;;;4.57;2.80;;;30.90;68.80;;;;;;4976536;28;20487;-69
2022/05/16 11:11:51;;;;;;;4.40;3.10;;;31.10;69.70;;;;;;4976545;28;20510;-70
2022/05/16 11:14:25;;;;;;;3.00;2.57;;;30.90;67.30;;;;;;4976492;28;20460;-69
2022/05/16 11:16:55;;;;;;;6.60;2.70;;;30.70;68.10;;;;;;4976218;28;20439;-69
2022/05/16 11:19:30;;;;;;;6.50;3.10;;;30.40;69.90;;;;;;4976611;28;20455;-70
2022/05/16 11:22:05;;;;;;;5.10;3.40;;;30.20;71.00;;;;;;4976159;28;20474;-69
2022/05/16 11:24:41;;;;;;;6.67;2.93;;;30.00;72.10;;;;;;4975236;28;20434;-69
2022/05/16 11:27:17;;;;;;;11.17;3.30;;;29.40;72.50;;;;;;4975699;28;20862;-69
2022/05/16 11:29:53;;;;;;;6.57;2.97;;;28.90;73.80;;;;;;4975819;28;20513;-69
2022/05/16 11:32:35;;;;;;;4.90;3.47;;;28.50;76.00;;;;;;4975528;28;20982;-69
2022/05/16 11:35:07;;;;;;;4.87;3.10;;;28.20;75.00;;;;;;4976238;28;20816;-68
2022/05/16 11:38:06;;;;;;;4.67;3.00;;;27.90;75.40;;;;;;4975671;28;20449;-68
2022/05/16 11:40:37;;;;;;;8.97;3.27;;;27.50;76.80;;;;;;4940381;28;20991;-68
2022/05/16 11:43:11;;;;;;;4.43;2.93;;;27.10;77.20;;;;;;4975549;28;20449;-67
2022/05/16 11:46:08;;;;;;;5.30;3.07;;;26.80;78.80;;;;;;4975431;28;20435;-67
2022/05/16 11:48:44;;;;;;;6.10;3.10;;;26.50;80.10;;;;;;4975372;28;20489;-67
2022/05/16 11:51:22;;;;;;;3.90;2.50;;;26.20;80.40;;;;;;4975077;28;20536;-68
2022/05/16 11:53:50;;;;;;;4.87;2.53;;;25.80;82.40;;;;;;4975327;28;20443;-68
2022/05/16 12:02:20;;;;;;;7.80;2.27;;;25.40;84.40;;;;;;4948157;28;20982;-68
2022/05/16 12:04:49;;;;;;;2.37;2.10;;;25.20;82.10;;;;;;4974875;28;20912;-68
2022/05/16 12:07:22;;;;;;;2.97;2.03;;;25.00;84.20;;;;;;4974733;28;20454;-68
2022/05/16 12:09:55;;;;;;;3.40;2.70;;;24.80;83.80;;;;;;4974915;28;20473;-68
2022/05/16 12:12:34;;;;;;;3.63;1.80;;;24.70;83.80;;;;;;4974831;28;20478;-68
2022/05/16 12:15:31;;;;;;;5.23;2.43;;;24.40;84.10;;;;;;4974958;28;20450;-68
2022/05/16 12:18:01;;;;;;;2.97;2.37;;;24.20;85.10;;;;;;4975796;28;20790;-68
2022/05/16 12:21:03;;;;;;;4.90;1.70;;;24.10;83.60;;;;;;4975070;28;20459;-68
2022/05/16 12:23:58;;;;;;;5.23;3.23;;;24.00;83.20;;;;;;4974681;28;20485;-69
2022/05/16 12:26:58;;;;;;;2.43;1.77;;;23.80;84.70;;;;;;4960969;28;20823;-68
2022/05/16 12:29:32;;;;;;;4.53;1.70;;;23.80;86.30;;;;;;4974429;28;20498;-68
2022/05/16 12:31:59;;;;;;;3.13;1.60;;;23.80;85.50;;;;;;4975456;28;20478;-69
2022/05/16 12:34:51;;;;;;;2.23;1.67;;;23.80;85.90;;;;;;4974747;28;20465;-69
2022/05/16 12:37:20;;;;;;;6.60;2.03;;;23.60;86.40;;;;;;4976573;28;20811;-69
2022/05/16 12:39:58;;;;;;;7.17;1.80;;;23.60;88.10;;;;;;4977787;28;20943;-69
2022/05/16 12:42:49;;;;;;;7.23;1.90;;;23.50;92.20;;;;;;4978135;28;20836;-69
2022/05/16 12:45:39;;;;;;;5.67;2.40;;;23.30;95.00;;;;;;4968460;28;20553;-69
2022/05/16 12:48:28;;;;;;;7.30;2.20;;;23.00;99.90;;;;;;4977956;28;20959;-68
2022/05/16 12:51:20;;;;;;;4.63;2.30;;;22.50;99.90;;;;;;4977939;28;20474;-68
2022/05/16 12:54:22;;;;;;;3.60;2.93;;;22.10;99.90;;;;;;4977845;28;20439;-69
2022/05/16 12:56:53;;;;;;;4.70;2.33;;;21.60;99.90;;;;;;4977509;28;20842;-68
2022/05/16 12:59:48;;;;;;;6.57;2.13;;;21.10;99.90;;;;;;4978040;28;20435;-68
2022/05/16 13:02:22;;;;;;;4.93;2.60;;;20.80;99.90;;;;;;4978093;28;20494;-68
2022/05/16 13:05:04;;;;;;;8.20;3.40;;;20.60;99.90;;;;;;4977828;28;20442;-69
2022/05/16 13:07:40;;;;;;;7.83;2.40;;;20.40;99.90;;;;;;4977640;28;20438;-68
2022/05/16 13:10:26;;;;;;;4.67;2.60;;;20.30;99.90;;;;;;4977723;28;20502;-68
2022/05/16 13:13:03;;;;;;;4.87;2.30;;;20.20;99.90;;;;;;4977648;28;20443;-68
2022/05/16 13:15:35;;;;;;;5.20;2.90;;;20.20;99.90;;;;;;4977273;28;20946;-68
2022/05/16 13:18:08;;;;;;;6.17;3.00;;;20.00;99.90;;;;;;4977716;28;20446;-68
2022/05/16 13:20:37;;;;;;;4.60;2.73;;;20.00;99.90;;;;;;4977157;28;20998;-68
2022/05/16 13:23:04;;;;;;;2.40;2.20;;;20.10;99.90;;;;;;4977474;28;20841;-69
2022/05/16 13:29:21;;;;;;;2.93;2.20;;;20.10;99.90;;;;;;4978222;28;20462;-68
2022/05/16 13:31:06;;;;;;;5.93;2.63;;;20.20;99.90;;;;;;4977477;28;20470;-67
2022/05/16 13:33:37;;;;;;;8.03;3.70;;;20.30;99.90;;;;;;4977183;28;20879;-67
2022/05/16 13:36:14;;;;;;;6.90;2.77;;;20.40;99.90;;;;;;4978499;28;20439;-68
2022/05/16 13:38:41;;;;;;;5.17;3.17;;;20.50;99.90;;;;;;4977793;28;20451;-68
2022/05/16 13:41:08;;;;;;;6.23;2.93;;;20.60;99.90;;;;;;4977798;28;20482;-68
2022/05/16 13:43:36;;;;;;;7.00;3.00;;;20.80;99.90;;;;;;4977725;28;20446;-68
2022/05/16 13:46:06;;;;;;;7.90;4.00;;;21.00;99.90;;;;;;4977832;28;20865;-68
2022/05/16 13:48:33;;;;;;;9.40;3.30;;;21.20;99.90;;;;;;4977747;28;20451;-69
2022/05/16 13:51:01;;;;;;;4.67;3.13;;;21.50;99.90;;;;;;4978034;28;20479;-68
2022/05/16 13:53:30;;;;;;;6.23;2.93;;;21.80;99.90;;;;;;4978697;28;20459;-69
2022/05/16 13:55:58;;;;;;;3.40;3.10;;;22.00;99.90;;;;;;4979633;28;20458;-69
2022/05/16 13:58:28;;;;;;;3.50;2.70;;;22.20;99.90;;;;;;4986226;28;20458;-69
2022/05/16 14:03:55;;;;;;;3.90;3.20;;;22.50;99.90;;;;;;5098399;27;20524;-69
2022/05/16 14:06:31;;;;;;;4.20;3.03;;;22.90;99.90;;;;;;5096657;28;20445;-69
2022/05/16 14:09:03;;;;;;;3.77;3.00;;;23.10;99.90;;;;;;5095500;28;20452;-68
2022/05/16 14:11:31;;;;;;;3.00;2.57;;;23.20;99.90;;;;;;5094866;28;20552;-69
2022/05/16 14:13:58;;;;;;;3.37;3.00;;;23.40;99.90;;;;;;5093741;28;20452;-68
2022/05/16 14:16:30;;;;;;;3.00;2.80;;;23.60;99.90;;;;;;5093057;28;20450;-69
2022/05/16 14:19:04;;;;;;;4.73;3.20;;;23.90;99.90;;;;;;5092919;28;20441;-69
2022/05/16 14:21:47;;;;;;;3.80;3.23;;;23.90;99.90;;;;;;5092423;28;20501;-70
2022/05/16 14:24:16;;;;;;;4.10;3.07;;;23.70;99.90;;;;;;5092050;28;20438;-69
2022/05/16 14:26:49;;;;;;;3.77;3.10;;;23.70;99.90;;;;;;5092133;28;20445;-68
2022/05/16 14:29:19;;;;;;;3.33;2.93;;;23.70;99.90;;;;;;5091536;28;20552;-68
2022/05/16 14:31:48;;;;;;;3.43;2.60;;;23.80;99.90;;;;;;5091736;28;20526;-68
2022/05/16 14:34:24;;;;;;;6.37;3.30;;;24.10;99.90;;;;;;5091140;28;20453;-68
2022/05/16 14:36:54;;;;;;;3.20;2.90;;;24.30;99.90;;;;;;5091584;28;20443;-68
2022/05/16 14:39:24;;;;;;;3.80;3.33;;;24.20;99.90;;;;;;5092824;28;20453;-69
2022/05/16 14:42:05;;;;;;;5.57;3.03;;;24.30;99.90;;;;;;5090950;28;20941;-69
2022/05/16 14:44:35;;;;;;;3.50;2.77;;;24.30;99.90;;;;;;5091274;28;20429;-69
2022/05/16 14:47:14;;;;;;;6.10;2.87;;;24.40;99.90;;;;;;5091245;28;20453;-69
2022/05/16 14:49:42;;;;;;;4.40;3.20;;;24.50;99.90;;;;;;5091520;28;20433;-69
2022/05/16 14:52:09;;;;;;;5.57;3.10;;;24.40;99.90;;;;;;5091141;28;20977;-69
2022/05/16 14:54:39;;;;;;;4.50;3.50;;;24.40;99.90;;;;;;5091280;28;20533;-68
2022/05/16 14:57:08;;;;;;;5.40;3.27;;;24.40;99.90;;;;;;5091633;28;20434;-69
2022/05/16 14:59:35;;;;;;;3.87;3.50;;;24.50;99.90;;;;;;5091425;28;20453;-69
2022/05/16 15:04:49;;;;;;;3.80;3.00;;;24.70;99.90;;;;;;5090726;28;20417;-69
2022/05/16 15:07:17;;;;;;;4.40;2.90;;;24.70;99.90;;;;;;5090772;28;20449;-69
2022/05/16 15:09:44;;;;;;;6.40;4.23;;;24.90;99.90;;;;;;5092134;28;20460;-69
2022/05/16 15:12:12;;;;;;;9.83;3.60;;;24.90;99.90;;;;;;5092222;28;20469;-69
2022/05/16 15:14:39;;;;;;;4.50;3.00;;;24.70;99.90;;;;;;5082121;28;21004;-68
2022/05/16 15:17:08;;;;;;;3.80;3.17;;;24.70;99.90;;;;;;5079434;28;20503;-68
2022/05/16 15:19:37;;;;;;;4.43;3.60;;;24.60;99.90;;;;;;5079629;28;20474;-69
2022/05/16 15:22:07;;;;;;;4.47;3.70;;;24.30;99.90;;;;;;5079285;28;20503;-68
2022/05/16 15:24:38;;;;;;;3.77;3.47;;;24.30;99.90;;;;;;5078869;28;20470;-68
2022/05/16 15:27:06;;;;;;;3.60;3.30;;;24.20;99.90;;;;;;5078205;28;20503;-68
2022/05/16 15:29:36;;;;;;;4.40;3.53;;;24.20;99.90;;;;;;5077957;28;20450;-68
2022/05/16 15:32:03;;;;;;;4.97;3.03;;;24.20;99.90;;;;;;5078439;28;20496;-68
2022/05/16 15:34:31;;;;;;;5.87;3.50;;;24.30;99.90;;;;;;5078065;28;20461;-68
2022/05/16 15:36:58;;;;;;;3.83;2.83;;;24.30;99.90;;;;;;5080886;28;20507;-68
2022/05/16 15:39:28;;;;;;;4.03;3.57;;;24.30;99.90;;;;;;5083420;28;20484;-69
2022/05/16 15:41:55;;;;;;;4.40;3.00;;;24.20;99.90;;;;;;5077750;28;20481;-68
2022/05/16 15:44:23;;;;;;;3.37;2.83;;;24.20;99.90;;;;;;5078558;28;20450;-68
2022/05/16 15:46:50;;;;;;;3.80;3.00;;;24.20;99.90;;;;;;5078738;28;20450;-68
2022/05/16 15:49:20;;;;;;;3.83;3.10;;;24.10;99.90;;;;;;5076446;28;20454;-68
2022/05/16 15:51:47;;;;;;;5.17;2.33;;;24.10;99.90;;;;;;5076877;28;20969;-68
2022/05/16 15:54:14;;;;;;;3.37;2.33;;;24.30;99.90;;;;;;5076497;28;20929;-68
2022/05/16 15:56:42;;;;;;;4.00;2.50;;;24.50;99.90;;;;;;5075843;28;20917;-68
2022/05/16 15:59:10;;;;;;;3.33;2.13;;;24.70;99.90;;;;;;5076379;28;20453;-68
2022/05/16 16:01:38;;;;;;;4.27;2.40;;;24.80;99.90;;;;;;5076108;28;20570;-68
2022/05/16 16:09:33;;;;;;;3.53;3.20;;;24.50;99.90;;;;;;5080640;28;20418;-68
2022/05/16 16:12:02;;;;;;;4.87;2.70;;;24.60;99.90;;;;;;5079471;28;20597;-68
2022/05/16 16:14:29;;;;;;;3.40;2.27;;;24.60;99.90;;;;;;5080913;28;20504;-68
2022/05/16 16:16:56;;;;;;;7.27;2.93;;;24.60;99.90;;;;;;5077514;28;20461;-68
2022/05/16 16:19:25;;;;;;;2.57;2.20;;;24.50;99.90;;;;;;5077078;28;20936;-68
2022/05/16 16:21:53;;;;;;;2.87;2.60;;;24.40;99.90;;;;;;5076794;28;20834;-68
2022/05/16 16:24:20;;;;;;;2.53;2.33;;;24.30;99.90;;;;;;5077480;28;20482;-68
2022/05/16 16:26:47;;;;;;;2.43;2.10;;;24.20;99.90;;;;;;5075780;28;20456;-68
2022/05/16 16:29:15;;;;;;;6.80;2.57;;;24.30;99.90;;;;;;5076547;28;20454;-68
2022/05/16 16:31:43;;;;;;;4.20;2.40;;;24.30;99.90;;;;;;5076584;28;20485;-68
2022/05/16 16:34:12;;;;;;;3.37;2.20;;;24.30;99.90;;;;;;5076494;28;20508;-68
2022/05/16 16:36:41;;;;;;;2.60;2.17;;;24.20;99.90;;;;;;5076900;28;20537;-67
2022/05/16 16:39:09;;;;;;;5.20;2.10;;;24.00;99.90;;;;;;5076596;28;20454;-67
2022/05/16 16:41:36;;;;;;;3.53;2.50;;;23.90;99.90;;;;;;5077045;28;20474;-68
2022/05/16 16:44:04;;;;;;;3.07;2.43;;;23.90;99.90;;;;;;5075444;28;20474;-68
2022/05/16 16:46:33;;;;;;;2.70;2.47;;;23.80;99.90;;;;;;5075810;28;20454;-67
2022/05/16 16:48:59;;;;;;;3.80;2.30;;;23.60;99.90;;;;;;5075189;28;20495;-67
2022/05/16 16:59:44;;;;;;;2.80;1.90;;;23.30;99.90;;;;;;5075130;28;20418;-68
2022/05/16 17:02:16;;;;;;;3.57;2.00;;;23.20;99.90;;;;;;5075416;28;20482;-68
2022/05/16 17:04:43;;;;;;;2.63;2.33;;;23.10;99.90;;;;;;5083813;28;20431;-67
2022/05/16 17:07:11;;;;;;;2.00;2.00;;;23.10;99.90;;;;;;5082688;28;20469;-67
2022/05/16 17:09:38;;;;;;;2.93;2.10;;;23.00;99.90;;;;;;5076849;28;20975;-67
2022/05/16 17:12:06;;;;;;;3.50;1.93;;;23.00;99.90;;;;;;5076642;28;20505;-68
2022/05/16 17:14:33;;;;;;;2.63;2.17;;;23.00;99.90;;;;;;5076107;28;20446;-68
2022/05/16 17:17:00;;;;;;;2.70;2.50;;;23.10;99.90;;;;;;5075625;28;20640;-68
2022/05/16 17:19:30;;;;;;;3.03;1.70;;;23.10;99.90;;;;;;5074701;28;20941;-68
2022/05/16 17:21:57;;;;;;;2.53;2.30;;;23.10;99.90;;;;;;5074831;28;20477;-67
2022/05/16 17:24:24;;;;;;;2.60;2.40;;;23.10;99.90;;;;;;5075224;28;20564;-67
2022/05/16 17:26:53;;;;;;;2.37;2.17;;;23.10;99.90;;;;;;5074490;28;20552;-67
2022/05/16 17:29:19;;;;;;;2.70;2.17;;;23.00;99.90;;;;;;5074601;28;20439;-67
2022/05/16 17:31:47;;;;;;;2.13;2.03;;;23.00;99.90;;;;;;5074335;28;20469;-68
2022/05/16 17:34:14;;;;;;;6.57;2.00;;;22.90;99.90;;;;;;5074767;28;20545;-68
2022/05/16 17:36:42;;;;;;;3.67;2.27;;;22.80;99.90;;;;;;5074545;28;20454;-69
2022/05/16 17:39:09;;;;;;;3.87;2.70;;;22.70;99.90;;;;;;5074433;28;20449;-67
2022/05/16 17:41:36;;;;;;;3.00;1.80;;;22.60;99.90;;;;;;5074253;28;20485;-68
2022/05/16 17:44:04;;;;;;;2.10;1.87;;;22.50;99.90;;;;;;5074300;28;20539;-67
2022/05/16 17:46:32;;;;;;;2.47;1.90;;;22.40;99.90;;;;;;5074321;28;20525;-67
2022/05/16 17:48:59;;;;;;;1.97;1.80;;;22.30;99.90;;;;;;5074380;28;20504;-67